sensor_id;sensor_type;location;lat;lon;timestamp;pressure;altitude;pressure_sealevel;temperature;humidity
40850;BME280;26571;41.610;25.380;2023-01-25T00:02:04;99687.34;;;5.98;nan
40850;BME280;26571;41.610;25.380;2023-01-25T00:04:30;99700.31;;;6.12;nan
40850;BME280;26571;41.610;25.380;2023-01-25T00:06:55;99696.00;;;6.11;nan
40850;BME280;26571;41.610;25.380;2023-01-25T00:09:22;99702.69;;;6.15;nan
40850;BME280;26571;41.610;25.380;2023-01-25T00:11:48;99678.13;;;6.05;nan
40850;BME280;26571;41.610;25.380;2023-01-25T00:14:14;99709.69;;;6.15;nan
40850;BME280;26571;41.610;25.380;2023-01-25T00:16:41;99705.72;;;6.09;nan
40850;BME280;26571;41.610;25.380;2023-01-25T00:19:07;99708.22;;;6.11;nan
40850;BME280;26571;41.610;25.380;2023-01-25T00:21:33;99701.97;;;6.13;nan
40850;BME280;26571;41.610;25.380;2023-01-25T00:23:59;99692.13;;;5.91;nan
40850;BME280;26571;41.610;25.380;2023-01-25T00:26:25;99717.03;;;5.97;nan
40850;BME280;26571;41.610;25.380;2023-01-25T00:28:52;99713.38;;;6.00;nan
40850;BME280;26571;41.610;25.380;2023-01-25T00:31:44;99706.16;;;6.03;nan
40850;BME280;26571;41.610;25.380;2023-01-25T00:36:51;99714.91;;;6.15;nan
40850;BME280;26571;41.610;25.380;2023-01-25T00:39:19;99721.53;;;6.08;nan
40850;BME280;26571;41.610;25.380;2023-01-25T00:41:45;99714.53;;;6.08;nan
40850;BME280;26571;41.610;25.380;2023-01-25T00:44:10;99715.16;;;6.12;nan
40850;BME280;26571;41.610;25.380;2023-01-25T00:46:35;99723.19;;;6.09;nan
40850;BME280;26571;41.610;25.380;2023-01-25T00:49:01;99728.94;;;6.14;nan
40850;BME280;26571;41.610;25.380;2023-01-25T00:51:26;99721.53;;;5.95;nan
40850;BME280;26571;41.610;25.380;2023-01-25T00:53:52;99722.28;;;5.97;nan
40850;BME280;26571;41.610;25.380;2023-01-25T00:56:18;99723.00;;;5.99;nan
40850;BME280;26571;41.610;25.380;2023-01-25T00:58:43;99693.28;;;5.75;nan
40850;BME280;26571;41.610;25.380;2023-01-25T01:01:10;99723.50;;;5.91;nan
40850;BME280;26571;41.610;25.380;2023-01-25T01:03:35;99719.97;;;5.92;nan
40850;BME280;26571;41.610;25.380;2023-01-25T01:06:08;99720.97;;;5.90;nan
40850;BME280;26571;41.610;25.380;2023-01-25T01:08:37;99688.59;;;5.67;nan
40850;BME280;26571;41.610;25.380;2023-01-25T01:11:05;99718.78;;;5.96;nan
40850;BME280;26571;41.610;25.380;2023-01-25T01:13:32;99705.28;;;5.90;nan
40850;BME280;26571;41.610;25.380;2023-01-25T01:16:00;99717.25;;;5.94;nan
40850;BME280;26571;41.610;25.380;2023-01-25T01:18:28;99715.66;;;6.04;nan
40850;BME280;26571;41.610;25.380;2023-01-25T01:20:53;99709.50;;;6.05;nan
40850;BME280;26571;41.610;25.380;2023-01-25T01:23:19;99708.78;;;6.03;nan
40850;BME280;26571;41.610;25.380;2023-01-25T01:25:45;99717.63;;;5.88;nan
40850;BME280;26571;41.610;25.380;2023-01-25T01:28:11;99703.22;;;6.08;nan
40850;BME280;26571;41.610;25.380;2023-01-25T01:30:38;99702.41;;;6.07;nan
40850;BME280;26571;41.610;25.380;2023-01-25T01:33:03;99699.88;;;6.06;nan
40850;BME280;26571;41.610;25.380;2023-01-25T01:35:29;99697.81;;;5.98;nan
40850;BME280;26571;41.610;25.380;2023-01-25T01:37:55;99696.97;;;5.98;nan
40850;BME280;26571;41.610;25.380;2023-01-25T01:40:21;99695.38;;;5.95;nan
40850;BME280;26571;41.610;25.380;2023-01-25T01:43:04;99693.28;;;5.87;nan
40850;BME280;26571;41.610;25.380;2023-01-25T01:51:04;99699.91;;;5.93;nan
40850;BME280;26571;41.610;25.380;2023-01-25T01:53:36;99688.16;;;5.86;nan
40850;BME280;26571;41.610;25.380;2023-01-25T01:56:06;99686.72;;;5.94;nan
40850;BME280;26571;41.610;25.380;2023-01-25T01:58:32;99689.44;;;5.93;nan
40850;BME280;26571;41.610;25.380;2023-01-25T02:00:58;99700.94;;;6.03;nan
40850;BME280;26571;41.610;25.380;2023-01-25T02:03:25;99690.16;;;5.95;nan
40850;BME280;26571;41.610;25.380;2023-01-25T02:06:13;99689.97;;;5.98;nan
40850;BME280;26571;41.610;25.380;2023-01-25T02:08:40;99673.66;;;5.94;nan
40850;BME280;26571;41.610;25.380;2023-01-25T02:11:08;99658.06;;;5.80;nan
40850;BME280;26571;41.610;25.380;2023-01-25T02:13:35;99674.38;;;5.96;nan
40850;BME280;26571;41.610;25.380;2023-01-25T02:16:01;99690.38;;;6.05;nan
40850;BME280;26571;41.610;25.380;2023-01-25T02:18:28;99689.00;;;5.99;nan
40850;BME280;26571;41.610;25.380;2023-01-25T02:20:55;99687.34;;;5.98;nan
40850;BME280;26571;41.610;25.380;2023-01-25T02:26:11;99679.50;;;5.98;nan
40850;BME280;26571;41.610;25.380;2023-01-25T02:31:10;99679.16;;;5.90;nan
40850;BME280;26571;41.610;25.380;2023-01-25T02:33:35;99682.91;;;5.86;nan
40850;BME280;26571;41.610;25.380;2023-01-25T02:38:36;99680.41;;;5.84;nan
40850;BME280;26571;41.610;25.380;2023-01-25T02:41:07;99667.34;;;5.84;nan
40850;BME280;26571;41.610;25.380;2023-01-25T02:43:34;99669.53;;;5.90;nan
40850;BME280;26571;41.610;25.380;2023-01-25T02:46:14;99673.75;;;5.93;nan
40850;BME280;26571;41.610;25.380;2023-01-25T02:48:40;99662.44;;;5.80;nan
40850;BME280;26571;41.610;25.380;2023-01-25T02:51:07;99664.63;;;5.86;nan
40850;BME280;26571;41.610;25.380;2023-01-25T02:53:32;99670.00;;;5.97;nan
40850;BME280;26571;41.610;25.380;2023-01-25T02:55:58;99671.88;;;5.95;nan
40850;BME280;26571;41.610;25.380;2023-01-25T02:58:23;99674.16;;;5.87;nan
40850;BME280;26571;41.610;25.380;2023-01-25T03:00:49;99671.44;;;5.88;nan
40850;BME280;26571;41.610;25.380;2023-01-25T03:03:14;99674.38;;;5.84;nan
40850;BME280;26571;41.610;25.380;2023-01-25T03:05:39;99674.66;;;5.66;nan
40850;BME280;26571;41.610;25.380;2023-01-25T03:08:05;99679.38;;;5.61;nan
40850;BME280;26571;41.610;25.380;2023-01-25T03:10:30;99675.41;;;5.68;nan
40850;BME280;26571;41.610;25.380;2023-01-25T03:12:56;99667.25;;;5.60;nan
40850;BME280;26571;41.610;25.380;2023-01-25T03:15:21;99679.81;;;5.68;nan
40850;BME280;26571;41.610;25.380;2023-01-25T03:17:47;99680.63;;;5.68;nan
40850;BME280;26571;41.610;25.380;2023-01-25T03:20:12;99679.28;;;5.76;nan
40850;BME280;26571;41.610;25.380;2023-01-25T03:22:37;99669.34;;;5.81;nan
40850;BME280;26571;41.610;25.380;2023-01-25T03:25:03;99672.25;;;5.89;nan
40850;BME280;26571;41.610;25.380;2023-01-25T03:27:29;99668.38;;;5.82;nan
40850;BME280;26571;41.610;25.380;2023-01-25T03:29:54;99670.59;;;5.75;nan
40850;BME280;26571;41.610;25.380;2023-01-25T03:32:20;99675.94;;;5.74;nan
40850;BME280;26571;41.610;25.380;2023-01-25T03:34:45;99642.59;;;5.52;nan
40850;BME280;26571;41.610;25.380;2023-01-25T03:37:11;99673.53;;;5.70;nan
40850;BME280;26571;41.610;25.380;2023-01-25T03:39:36;99670.38;;;5.65;nan
40850;BME280;26571;41.610;25.380;2023-01-25T03:42:01;99668.72;;;5.64;nan
40850;BME280;26571;41.610;25.380;2023-01-25T03:44:27;99666.44;;;5.73;nan
40850;BME280;26571;41.610;25.380;2023-01-25T03:46:52;99671.97;;;5.68;nan
40850;BME280;26571;41.610;25.380;2023-01-25T03:49:18;99655.78;;;5.63;nan
40850;BME280;26571;41.610;25.380;2023-01-25T03:51:47;99667.47;;;5.70;nan
40850;BME280;26571;41.610;25.380;2023-01-25T03:54:13;99677.50;;;5.76;nan
40850;BME280;26571;41.610;25.380;2023-01-25T03:56:38;99674.28;;;5.73;nan
40850;BME280;26571;41.610;25.380;2023-01-25T03:59:04;99680.31;;;5.73;nan
40850;BME280;26571;41.610;25.380;2023-01-25T04:01:29;99675.19;;;5.71;nan
40850;BME280;26571;41.610;25.380;2023-01-25T04:03:54;99670.94;;;5.58;nan
40850;BME280;26571;41.610;25.380;2023-01-25T04:06:20;99676.69;;;5.63;nan
40850;BME280;26571;41.610;25.380;2023-01-25T04:08:45;99670.38;;;5.65;nan
40850;BME280;26571;41.610;25.380;2023-01-25T04:11:11;99673.22;;;5.62;nan
40850;BME280;26571;41.610;25.380;2023-01-25T04:13:37;99679.28;;;5.63;nan
40850;BME280;26571;41.610;25.380;2023-01-25T04:16:06;99635.91;;;5.35;nan
40850;BME280;26571;41.610;25.380;2023-01-25T04:18:32;99687.72;;;5.66;nan
40850;BME280;26571;41.610;25.380;2023-01-25T04:20:58;99687.72;;;5.66;nan
40850;BME280;26571;41.610;25.380;2023-01-25T04:23:24;99690.25;;;5.68;nan
40850;BME280;26571;41.610;25.380;2023-01-25T04:28:19;99690.25;;;5.68;nan
40850;BME280;26571;41.610;25.380;2023-01-25T04:30:45;99686.06;;;5.65;nan
40850;BME280;26571;41.610;25.380;2023-01-25T04:33:10;99687.94;;;5.76;nan
40850;BME280;26571;41.610;25.380;2023-01-25T04:35:37;99695.16;;;5.73;nan
40850;BME280;26571;41.610;25.380;2023-01-25T04:38:02;99701.94;;;5.75;nan
40850;BME280;26571;41.610;25.380;2023-01-25T04:40:29;99702.34;;;5.82;nan
40850;BME280;26571;41.610;25.380;2023-01-25T04:42:55;99701.66;;;5.67;nan
40850;BME280;26571;41.610;25.380;2023-01-25T04:45:21;99668.28;;;5.45;nan
40850;BME280;26571;41.610;25.380;2023-01-25T04:47:48;99679.59;;;5.58;nan
40850;BME280;26571;41.610;25.380;2023-01-25T04:50:13;99723.91;;;5.73;nan
40850;BME280;26571;41.610;25.380;2023-01-25T04:52:39;99712.41;;;5.62;nan
40850;BME280;26571;41.610;25.380;2023-01-25T04:55:04;99712.19;;;5.65;nan
40850;BME280;26571;41.610;25.380;2023-01-25T04:57:30;99711.56;;;5.49;nan
40850;BME280;26571;41.610;25.380;2023-01-25T04:59:55;99706.53;;;5.46;nan
40850;BME280;26571;41.610;25.380;2023-01-25T05:02:21;99685.84;;;5.43;nan
40850;BME280;26571;41.610;25.380;2023-01-25T05:04:46;99714.06;;;5.63;nan
40850;BME280;26571;41.610;25.380;2023-01-25T05:07:12;99712.41;;;5.62;nan
40850;BME280;26571;41.610;25.380;2023-01-25T05:09:37;99717.63;;;5.62;nan
40850;BME280;26571;41.610;25.380;2023-01-25T05:12:02;99712.72;;;5.70;nan
40850;BME280;26571;41.610;25.380;2023-01-25T05:14:29;99713.66;;;5.69;nan
40850;BME280;26571;41.610;25.380;2023-01-25T05:16:55;99710.22;;;5.69;nan
40850;BME280;26571;41.610;25.380;2023-01-25T05:19:20;99722.22;;;5.71;nan
40850;BME280;26571;41.610;25.380;2023-01-25T05:21:45;99709.88;;;5.61;nan
40850;BME280;26571;41.610;25.380;2023-01-25T05:24:24;99712.19;;;5.65;nan
40850;BME280;26571;41.610;25.380;2023-01-25T05:26:49;99704.88;;;5.70;nan
40850;BME280;26571;41.610;25.380;2023-01-25T05:29:37;99705.72;;;5.58;nan
40850;BME280;26571;41.610;25.380;2023-01-25T05:32:12;99703.00;;;5.60;nan
40850;BME280;26571;41.610;25.380;2023-01-25T05:34:37;99693.59;;;5.57;nan
40850;BME280;26571;41.610;25.380;2023-01-25T05:37:04;99701.81;;;5.51;nan
40850;BME280;26571;41.610;25.380;2023-01-25T05:39:30;99702.56;;;5.53;nan
40850;BME280;26571;41.610;25.380;2023-01-25T05:41:56;99704.66;;;5.48;nan
40850;BME280;26571;41.610;25.380;2023-01-25T05:44:21;99694.59;;;5.42;nan
40850;BME280;26571;41.610;25.380;2023-01-25T05:46:47;99699.63;;;5.45;nan
40850;BME280;26571;41.610;25.380;2023-01-25T05:49:12;99700.88;;;5.39;nan
40850;BME280;26571;41.610;25.380;2023-01-25T05:51:38;99700.25;;;5.36;nan
40850;BME280;26571;41.610;25.380;2023-01-25T05:54:04;99695.25;;;5.33;nan
40850;BME280;26571;41.610;25.380;2023-01-25T05:56:30;99701.06;;;5.24;nan
40850;BME280;26571;41.610;25.380;2023-01-25T05:58:57;99678.66;;;4.94;nan
40850;BME280;26571;41.610;25.380;2023-01-25T06:01:24;99712.06;;;5.02;nan
40850;BME280;26571;41.610;25.380;2023-01-25T06:03:49;99708.97;;;5.09;nan
40850;BME280;26571;41.610;25.380;2023-01-25T06:06:15;99708.41;;;4.77;nan
40850;BME280;26571;41.610;25.380;2023-01-25T06:08:41;99710.47;;;4.72;nan
40850;BME280;26571;41.610;25.380;2023-01-25T06:11:07;99707.97;;;4.71;nan
40850;BME280;26571;41.610;25.380;2023-01-25T06:13:34;99708.03;;;4.42;nan
40850;BME280;26571;41.610;25.380;2023-01-25T06:15:59;99716.88;;;4.54;nan
40850;BME280;26571;41.610;25.380;2023-01-25T06:18:25;99719.34;;;4.70;nan
40850;BME280;26571;41.610;25.380;2023-01-25T06:20:50;99717.66;;;4.83;nan
40850;BME280;26571;41.610;25.380;2023-01-25T06:23:16;99717.19;;;4.76;nan
40850;BME280;26571;41.610;25.380;2023-01-25T06:25:41;99714.88;;;4.72;nan
40850;BME280;26571;41.610;25.380;2023-01-25T06:28:07;99715.22;;;4.80;nan
40850;BME280;26571;41.610;25.380;2023-01-25T06:30:33;99713.28;;;4.96;nan
40850;BME280;26571;41.610;25.380;2023-01-25T06:32:59;99724.19;;;5.03;nan
40850;BME280;26571;41.610;25.380;2023-01-25T06:35:25;99715.41;;;4.77;nan
40850;BME280;26571;41.610;25.380;2023-01-25T06:37:54;99720.28;;;4.69;nan
40850;BME280;26571;41.610;25.380;2023-01-25T06:40:20;99724.69;;;4.95;nan
40850;BME280;26571;41.610;25.380;2023-01-25T06:42:45;99714.38;;;5.06;nan
40850;BME280;26571;41.610;25.380;2023-01-25T06:45:10;99714.41;;;5.19;nan
40850;BME280;26571;41.610;25.380;2023-01-25T06:47:36;99721.78;;;5.00;nan
40850;BME280;26571;41.610;25.380;2023-01-25T06:50:01;99731.72;;;5.07;nan
40850;BME280;26571;41.610;25.380;2023-01-25T06:52:27;99734.66;;;5.15;nan
40850;BME280;26571;41.610;25.380;2023-01-25T06:54:52;99724.03;;;5.18;nan
40850;BME280;26571;41.610;25.380;2023-01-25T06:57:18;99725.69;;;5.19;nan
40850;BME280;26571;41.610;25.380;2023-01-25T06:59:43;99723.09;;;5.19;nan
40850;BME280;26571;41.610;25.380;2023-01-25T07:02:13;99731.78;;;4.93;nan
40850;BME280;26571;41.610;25.380;2023-01-25T07:04:39;99721.31;;;4.66;nan
40850;BME280;26571;41.610;25.380;2023-01-25T07:07:07;99722.16;;;4.66;nan
40850;BME280;26571;41.610;25.380;2023-01-25T07:09:33;99706.63;;;4.51;nan
40850;BME280;26571;41.610;25.380;2023-01-25T07:11:58;99724.88;;;4.65;nan
40850;BME280;26571;41.610;25.380;2023-01-25T07:14:23;99723.25;;;4.77;nan
40850;BME280;26571;41.610;25.380;2023-01-25T07:16:49;99722.22;;;4.38;nan
40850;BME280;26571;41.610;25.380;2023-01-25T07:19:14;99725.69;;;4.24;nan
40850;BME280;26571;41.610;25.380;2023-01-25T07:21:42;99715.50;;;4.48;nan
40850;BME280;26571;41.610;25.380;2023-01-25T07:24:12;99720.47;;;4.38;nan
40850;BME280;26571;41.610;25.380;2023-01-25T07:26:38;99725.44;;;4.56;nan
40850;BME280;26571;41.610;25.380;2023-01-25T07:29:04;99721.34;;;4.93;nan
40850;BME280;26571;41.610;25.380;2023-01-25T07:31:29;99727.13;;;5.11;nan
40850;BME280;26571;41.610;25.380;2023-01-25T07:33:56;99724.75;;;5.21;nan
40850;BME280;26571;41.610;25.380;2023-01-25T07:36:22;99736.53;;;5.13;nan
40850;BME280;26571;41.610;25.380;2023-01-25T07:38:52;99725.41;;;5.24;nan
40850;BME280;26571;41.610;25.380;2023-01-25T07:41:17;99725.94;;;5.42;nan
40850;BME280;26571;41.610;25.380;2023-01-25T07:43:43;99730.59;;;5.64;nan
40850;BME280;26571;41.610;25.380;2023-01-25T07:46:10;99730.91;;;5.85;nan
40850;BME280;26571;41.610;25.380;2023-01-25T07:48:36;99731.66;;;5.87;nan
40850;BME280;26571;41.610;25.380;2023-01-25T07:51:03;99725.56;;;5.74;nan
40850;BME280;26571;41.610;25.380;2023-01-25T07:54:00;99727.44;;;5.71;nan
40850;BME280;26571;41.610;25.380;2023-01-25T07:56:30;99728.88;;;5.50;nan
40850;BME280;26571;41.610;25.380;2023-01-25T07:58:57;99728.28;;;5.59;nan
40850;BME280;26571;41.610;25.380;2023-01-25T08:01:24;99738.34;;;5.78;nan
40850;BME280;26571;41.610;25.380;2023-01-25T08:03:50;99733.09;;;5.91;nan
40850;BME280;26571;41.610;25.380;2023-01-25T08:06:17;99718.47;;;5.88;nan
40850;BME280;26571;41.610;25.380;2023-01-25T08:08:48;99730.28;;;5.81;nan
40850;BME280;26571;41.610;25.380;2023-01-25T08:11:15;99721.75;;;5.92;nan
40850;BME280;26571;41.610;25.380;2023-01-25T08:13:41;99740.44;;;6.11;nan
40850;BME280;26571;41.610;25.380;2023-01-25T08:16:13;99733.25;;;6.02;nan
40850;BME280;26571;41.610;25.380;2023-01-25T08:18:39;99738.06;;;6.08;nan
40850;BME280;26571;41.610;25.380;2023-01-25T08:21:05;99738.78;;;6.23;nan
40850;BME280;26571;41.610;25.380;2023-01-25T08:23:30;99742.53;;;6.32;nan
40850;BME280;26571;41.610;25.380;2023-01-25T08:26:11;99738.53;;;6.26;nan
40850;BME280;26571;41.610;25.380;2023-01-25T08:28:37;99731.31;;;6.30;nan
40850;BME280;26571;41.610;25.380;2023-01-25T08:31:15;99730.38;;;6.31;nan
40850;BME280;26571;41.610;25.380;2023-01-25T08:33:42;99734.16;;;6.27;nan
40850;BME280;26571;41.610;25.380;2023-01-25T08:36:10;99729.78;;;6.14;nan
40850;BME280;26571;41.610;25.380;2023-01-25T08:38:35;99736.91;;;6.12;nan
40850;BME280;26571;41.610;25.380;2023-01-25T08:41:16;99741.28;;;6.12;nan
40850;BME280;26571;41.610;25.380;2023-01-25T08:43:45;99730.22;;;6.08;nan
40850;BME280;26571;41.610;25.380;2023-01-25T08:46:13;99727.03;;;6.16;nan
40850;BME280;26571;41.610;25.380;2023-01-25T08:48:39;99724.13;;;6.20;nan
40850;BME280;26571;41.610;25.380;2023-01-25T08:51:08;99720.97;;;6.28;nan
40850;BME280;26571;41.610;25.380;2023-01-25T08:53:33;99723.47;;;6.30;nan
40850;BME280;26571;41.610;25.380;2023-01-25T08:56:06;99731.63;;;6.38;nan
40850;BME280;26571;41.610;25.380;2023-01-25T08:58:32;99724.13;;;6.20;nan
40850;BME280;26571;41.610;25.380;2023-01-25T09:01:03;99733.63;;;6.21;nan
40850;BME280;26571;41.610;25.380;2023-01-25T09:03:29;99737.31;;;6.19;nan
40850;BME280;26571;41.610;25.380;2023-01-25T09:05:54;99728.63;;;6.18;nan
40850;BME280;26571;41.610;25.380;2023-01-25T09:08:20;99722.00;;;6.26;nan
40850;BME280;26571;41.610;25.380;2023-01-25T09:10:45;99712.72;;;6.21;nan
40850;BME280;26571;41.610;25.380;2023-01-25T09:13:10;99713.34;;;6.25;nan
40850;BME280;26571;41.610;25.380;2023-01-25T09:15:37;99707.81;;;6.17;nan
40850;BME280;26571;41.610;25.380;2023-01-25T09:18:02;99710.31;;;6.18;nan
40850;BME280;26571;41.610;25.380;2023-01-25T09:20:28;99717.53;;;6.15;nan
40850;BME280;26571;41.610;25.380;2023-01-25T09:22:54;99700.84;;;5.92;nan
40850;BME280;26571;41.610;25.380;2023-01-25T09:25:19;99704.06;;;5.83;nan
40850;BME280;26571;41.610;25.380;2023-01-25T09:27:48;99701.88;;;6.02;nan
40850;BME280;26571;41.610;25.380;2023-01-25T09:30:14;99706.16;;;6.03;nan
40850;BME280;26571;41.610;25.380;2023-01-25T09:32:39;99687.13;;;6.14;nan
40850;BME280;26571;41.610;25.380;2023-01-25T09:35:05;99687.13;;;5.88;nan
40850;BME280;26571;41.610;25.380;2023-01-25T09:37:30;99679.06;;;6.04;nan
40850;BME280;26571;41.610;25.380;2023-01-25T09:39:56;99673.91;;;6.15;nan
40850;BME280;26571;41.610;25.380;2023-01-25T09:45:31;99662.44;;;6.05;nan
40850;BME280;26571;41.610;25.380;2023-01-25T09:48:15;99654.09;;;5.75;nan
40850;BME280;26571;41.610;25.380;2023-01-25T09:53:35;99642.56;;;6.15;nan
40850;BME280;26571;41.610;25.380;2023-01-25T09:56:21;99655.50;;;6.30;nan
40850;BME280;26571;41.610;25.380;2023-01-25T09:58:50;99639.78;;;6.30;nan
40850;BME280;26571;41.610;25.380;2023-01-25T10:01:24;99643.31;;;6.41;nan
40850;BME280;26571;41.610;25.380;2023-01-25T10:06:22;99638.91;;;6.18;nan
40850;BME280;26571;41.610;25.380;2023-01-25T10:08:59;99596.06;;;5.95;nan
40850;BME280;26571;41.610;25.380;2023-01-25T10:11:28;99621.94;;;6.24;nan
40850;BME280;26571;41.610;25.380;2023-01-25T10:13:55;99591.38;;;5.87;nan
40850;BME280;26571;41.610;25.380;2023-01-25T10:16:38;99609.69;;;6.24;nan
40850;BME280;26571;41.610;25.380;2023-01-25T10:21:47;99596.59;;;6.37;nan
40850;BME280;26571;41.610;25.380;2023-01-25T10:30:02;99606.53;;;5.69;nan
40850;BME280;26571;41.610;25.380;2023-01-25T10:32:31;99606.00;;;5.90;nan
40850;BME280;26571;41.610;25.380;2023-01-25T10:35:17;99605.38;;;5.99;nan
40850;BME280;26571;41.610;25.380;2023-01-25T10:37:43;99607.47;;;6.07;nan
40850;BME280;26571;41.610;25.380;2023-01-25T10:42:46;99602.31;;;6.05;nan
40850;BME280;26571;41.610;25.380;2023-01-25T10:45:14;99593.19;;;6.11;nan
40850;BME280;26571;41.610;25.380;2023-01-25T10:47:43;99594.63;;;6.28;nan
40850;BME280;26571;41.610;25.380;2023-01-25T10:58:46;99573.91;;;6.48;nan
40850;BME280;26571;41.610;25.380;2023-01-25T11:01:30;99569.47;;;6.38;nan
40850;BME280;26571;41.610;25.380;2023-01-25T11:03:57;99559.28;;;5.98;nan
40850;BME280;26571;41.610;25.380;2023-01-25T11:06:34;99565.31;;;5.49;nan
40850;BME280;26571;41.610;25.380;2023-01-25T11:09:45;99551.75;;;5.18;nan
40850;BME280;26571;41.610;25.380;2023-01-25T11:11:56;99555.81;;;5.23;nan
40850;BME280;26571;41.610;25.380;2023-01-25T11:14:24;99552.69;;;5.17;nan
40850;BME280;26571;41.610;25.380;2023-01-25T11:16:54;99544.63;;;4.82;nan
40850;BME280;26571;41.610;25.380;2023-01-25T11:19:24;99539.94;;;5.00;nan
40850;BME280;26571;41.610;25.380;2023-01-25T11:21:52;99546.41;;;4.95;nan
40850;BME280;26571;41.610;25.380;2023-01-25T11:24:18;99525.22;;;4.86;nan
40850;BME280;26571;41.610;25.380;2023-01-25T11:26:44;99522.00;;;4.83;nan
40850;BME280;26571;41.610;25.380;2023-01-25T11:31:38;99517.91;;;5.17;nan
40850;BME280;26571;41.610;25.380;2023-01-25T11:34:12;99510.59;;;5.35;nan
40850;BME280;26571;41.610;25.380;2023-01-25T11:36:43;99507.72;;;5.51;nan
40850;BME280;26571;41.610;25.380;2023-01-25T11:39:20;99505.72;;;5.67;nan
40850;BME280;26571;41.610;25.380;2023-01-25T11:55:28;99457.09;;;6.01;nan
40850;BME280;26571;41.610;25.380;2023-01-25T12:00:55;99478.50;;;6.30;nan
40850;BME280;26571;41.610;25.380;2023-01-25T12:03:47;99458.06;;;6.35;nan
40850;BME280;26571;41.610;25.380;2023-01-25T12:06:45;99455.59;;;6.45;nan
40850;BME280;26571;41.610;25.380;2023-01-25T12:09:25;99454.16;;;6.41;nan
40850;BME280;26571;41.610;25.380;2023-01-25T12:12:00;99452.50;;;6.40;nan
40850;BME280;26571;41.610;25.380;2023-01-25T12:14:33;99447.53;;;6.48;nan
40850;BME280;26571;41.610;25.380;2023-01-25T12:22:28;99437.75;;;6.28;nan
40850;BME280;26571;41.610;25.380;2023-01-25T12:33:08;99422.25;;;6.25;nan
40850;BME280;26571;41.610;25.380;2023-01-25T12:35:39;99424.88;;;6.25;nan
40850;BME280;26571;41.610;25.380;2023-01-25T12:38:34;99424.75;;;6.26;nan
40850;BME280;26571;41.610;25.380;2023-01-25T12:41:07;99434.97;;;6.18;nan
40850;BME280;26571;41.610;25.380;2023-01-25T12:43:45;99433.81;;;5.98;nan
40850;BME280;26571;41.610;25.380;2023-01-25T12:46:25;99431.53;;;6.17;nan
40850;BME280;26571;41.610;25.380;2023-01-25T12:48:56;99425.84;;;6.24;nan
40850;BME280;26571;41.610;25.380;2023-01-25T12:51:28;99430.38;;;6.33;nan
40850;BME280;26571;41.610;25.380;2023-01-25T12:53:59;99426.28;;;6.53;nan
40850;BME280;26571;41.610;25.380;2023-01-25T12:59:53;99418.84;;;6.00;nan
40850;BME280;26571;41.610;25.380;2023-01-25T13:05:32;99418.31;;;6.19;nan
40850;BME280;26571;41.610;25.380;2023-01-25T13:08:04;99412.03;;;6.21;nan
40850;BME280;26571;41.610;25.380;2023-01-25T13:10:42;99412.03;;;6.21;nan
40850;BME280;26571;41.610;25.380;2023-01-25T13:13:24;99414.91;;;6.30;nan
40850;BME280;26571;41.610;25.380;2023-01-25T13:15:51;99420.91;;;6.43;nan
40850;BME280;26571;41.610;25.380;2023-01-25T13:18:35;99382.03;;;6.03;nan
40850;BME280;26571;41.610;25.380;2023-01-25T13:21:06;99413.69;;;5.87;nan
40850;BME280;26571;41.610;25.380;2023-01-25T13:23:42;99424.97;;;5.88;nan
40850;BME280;26571;41.610;25.380;2023-01-25T13:28:58;99395.44;;;5.75;nan
40850;BME280;26571;41.610;25.380;2023-01-25T13:34:03;99416.19;;;6.13;nan
40850;BME280;26571;41.610;25.380;2023-01-25T13:42:03;99438.13;;;5.86;nan
40850;BME280;26571;41.610;25.380;2023-01-25T13:44:31;99441.53;;;6.00;nan
40850;BME280;26571;41.610;25.380;2023-01-25T13:47:00;99433.03;;;6.09;nan
40850;BME280;26571;41.610;25.380;2023-01-25T13:49:40;99434.81;;;6.08;nan
40850;BME280;26571;41.610;25.380;2023-01-25T13:52:05;99430.03;;;6.02;nan
40850;BME280;26571;41.610;25.380;2023-01-25T13:54:31;99429.31;;;6.00;nan
40850;BME280;26571;41.610;25.380;2023-01-25T13:57:11;99429.97;;;6.15;nan
40850;BME280;26571;41.610;25.380;2023-01-25T13:59:37;99432.94;;;6.21;nan
40850;BME280;26571;41.610;25.380;2023-01-25T14:02:02;99396.75;;;5.93;nan
40850;BME280;26571;41.610;25.380;2023-01-25T14:04:30;99432.72;;;6.25;nan
40850;BME280;26571;41.610;25.380;2023-01-25T14:06:58;99426.88;;;6.21;nan
40850;BME280;26571;41.610;25.380;2023-01-25T14:09:24;99426.38;;;6.16;nan
40850;BME280;26571;41.610;25.380;2023-01-25T14:11:52;99419.16;;;6.19;nan
40850;BME280;26571;41.610;25.380;2023-01-25T14:14:20;99415.63;;;5.96;nan
40850;BME280;26571;41.610;25.380;2023-01-25T14:17:20;99413.72;;;5.75;nan
40850;BME280;26571;41.610;25.380;2023-01-25T14:19:52;99410.41;;;5.36;nan
40850;BME280;26571;41.610;25.380;2023-01-25T14:25:12;99410.28;;;5.50;nan
40850;BME280;26571;41.610;25.380;2023-01-25T14:30:17;99407.28;;;5.67;nan
40850;BME280;26571;41.610;25.380;2023-01-25T14:32:42;99398.88;;;5.75;nan
40850;BME280;26571;41.610;25.380;2023-01-25T14:38:02;99411.97;;;5.99;nan
40850;BME280;26571;41.610;25.380;2023-01-25T14:40:42;99408.34;;;6.13;nan
40850;BME280;26571;41.610;25.380;2023-01-25T14:43:08;99410.00;;;6.14;nan
40850;BME280;26571;41.610;25.380;2023-01-25T14:45:34;99406.38;;;5.92;nan
40850;BME280;26571;41.610;25.380;2023-01-25T14:48:00;99410.78;;;5.55;nan
40850;BME280;26571;41.610;25.380;2023-01-25T14:50:37;99404.38;;;5.59;nan
40850;BME280;26571;41.610;25.380;2023-01-25T14:53:21;99412.84;;;5.87;nan
40850;BME280;26571;41.610;25.380;2023-01-25T14:55:48;99411.13;;;5.99;nan
40850;BME280;26571;41.610;25.380;2023-01-25T14:58:20;99412.34;;;6.06;nan
40850;BME280;26571;41.610;25.380;2023-01-25T15:03:18;99408.91;;;6.16;nan
40850;BME280;26571;41.610;25.380;2023-01-25T15:05:46;99403.63;;;6.29;nan
40850;BME280;26571;41.610;25.380;2023-01-25T15:10:56;99401.22;;;6.26;nan
40850;BME280;26571;41.610;25.380;2023-01-25T15:13:25;99412.28;;;6.30;nan
40850;BME280;26571;41.610;25.380;2023-01-25T15:15:54;99406.09;;;6.31;nan
40850;BME280;26571;41.610;25.380;2023-01-25T15:18:53;99405.75;;;6.35;nan
40850;BME280;26571;41.610;25.380;2023-01-25T15:23:54;99404.72;;;6.38;nan